WEATHER DATA

TODAY
Time Temp. Dewp. Hum. Wind dir Wind speed Wind gust Bar. 1h Prec. 24h Prec.
00:03 13.9 10.1 78 270 0.3 0.8 1016.3 0.0000 0.0000
00:14 13.8 10.2 79 270 0.3 0.8 1016.2 0.0000 0.0000
00:24 13.7 10.1 79 315 0.3 0.8 1016.4 0.0000 0.0000
00:34 13.6 10 79 270 0.3 1.1 1016.3 0.0000 0.0000
00:44 13.5 10.1 80 270 0.3 1.1 1016.3 0.0000 0.0000
00:54 13.4 10 80 270 0.3 1.1 1016.3 0.0000 0.0000
01:04 13.3 9.9 80 270 0.3 1.1 1016.4 0.0000 0.0000
01:14 13.2 9.8 80 270 0.3 1.1 1016.4 0.0000 0.0000
01:25 13.1 9.7 80 270 0.3 1.1 1016.5 0.0000 0.0000
01:35 13 9.6 80 270 0.3 0.8 1016.3 0.0000 0.0000
01:44 12.9 9.7 81 239 0.3 0.8 1016.5 0.0000 0.0000
01:55 12.7 9.5 81 270 0.3 1.1 1016.6 0.0000 0.0000
02:05 12.7 9.5 81 270 0.3 1.1 1016.6 0.0000 0.0000
02:15 12.7 9.5 81 310 0.3 1.1 1016.5 0.0000 0.0000
02:25 12.8 9.6 81 270 0.3 1.1 1016.4 0.0000 0.0000
02:35 12.8 9.4 80 270 0.3 0.8 1016.6 0.0000 0.0000
02:45 12.9 9.5 80 309 0.3 1.1 1016.6 0.0000 0.0000
02:55 12.9 9.5 80 270 0.3 1.1 1016.8 0.0000 0.0000
03:05 12.9 9.5 80 270 0.3 1.1 1016.9 0.0000 0.0000
03:16 12.8 9.4 80 270 0.3 0.8 1016.8 0.0000 0.0000
03:25 12.8 9.4 80 270 0.3 1.1 1016.9 0.0000 0.0000
03:35 12.8 9.4 80 270 0.3 0.8 1017 0.0000 0.0000
03:46 12.9 9.5 80 305 0.3 1.1 1016.9 0.0000 0.0000
03:56 12.8 9.4 80 270 0.3 1.4 1017 0.0000 0.0000
04:06 12.7 9.3 80 298 0.8 1.4 1017.1 0.0000 0.0000
04:16 12.7 9.5 81 304 0.3 1.4 1016.9 0.0000 0.0000
04:26 12.7 9.5 81 270 0.3 1.1 1017.1 0.0000 0.0000
04:36 12.7 9.5 81 270 0.3 1.1 1017.3 0.0000 0.0000
04:46 12.8 9.6 81 270 0.3 1.1 1017.3 0.0000 0.0000
04:57 12.8 9.6 81 270 0.3 1.1 1017.1 0.0000 0.0000
05:06 12.7 9.5 81 270 0.3 1.1 1017.1 0.0000 0.0000
05:16 12.8 9.6 81 270 0.3 1.1 1017.1 0.0000 0.0000
05:26 12.7 9.5 81 270 0.3 1.1 1017.2 0.0000 0.0000
05:37 12.7 9.5 81 270 0.3 1.1 1017.2 0.0000 0.0000
05:47 12.7 9.5 81 270 0.3 0.8 1017.4 0.0000 0.0000
05:56 12.8 9.6 81 270 0.3 1.1 1017.6 0.0000 0.0000
06:07 12.8 9.6 81 270 0.3 1.1 1017.6 0.0000 0.0000
06:17 12.9 9.7 81 270 0.3 1.1 1017.6 0.0000 0.0000
06:27 12.9 9.7 81 270 0.3 1.1 1017.6 0.0000 0.0000
06:37 13 9.8 81 270 0.3 1.1 1017.7 0.0000 0.0000
06:47 13 9.8 81 270 0.3 1.1 1017.7 0.0000 0.0000
06:57 13.1 9.9 81 270 0.3 0.8 1017.8 0.0000 0.0000
07:07 13.1 9.9 81 270 0.3 0.8 1017.8 0.0000 0.0000
07:17 13.1 9.9 81 302 0.3 0.8 1017.8 0.0000 0.0000
07:28 13.2 10 81 270 0.3 1.1 1017.9 0.0000 0.0000
07:37 13.2 10 81 270 0.3 1.1 1018.1 0.0000 0.0000
07:47 13.3 10.1 81 270 0.3 0.8 1018.1 0.0000 0.0000
07:58 13.3 10.1 81 270 0.3 1.1 1018.1 0.0000 0.0000
08:08 13.3 10.1 81 270 0.3 1.1 1018.2 0.0000 0.0000
08:18 13.3 10.1 81 270 0.3 1.1 1018.3 0.0000 0.0000
08:28 13.3 10.1 81 302 0.3 1.4 1018.4 0.0000 0.0000
08:38 13.4 10.2 81 289 0.8 1.1 1018.5 0.0000 0.0000
08:48 13.4 10 80 270 0.3 1.1 1018.5 0.0000 0.0000
08:58 13.4 10 80 270 0.3 1.1 1018.5 0.0000 0.0000
09:09 13.5 10.1 80 302 0.3 1.1 1018.7 0.0000 0.0000
09:18 13.5 10.1 80 270 0.3 1.1 1018.7 0.0000 0.0000
09:28 13.6 10.2 80 270 0.3 1.4 1018.9 0.0000 0.0000
09:38 13.6 10 79 305 0.8 1.4 1018.9 0.0000 0.0000
09:49 13.6 10 79 270 0.3 1.1 1019 0.0000 0.0000
09:59 13.6 10 79 270 0.3 1.1 1019 0.0000 0.0000
10:09 13.6 10 79 304 0.3 1.4 1019.1 0.0000 0.0000
10:19 13.6 9.8 78 270 0.3 1.4 1019 0.0000 0.0000
10:29 13.6 9.8 78 270 0.3 1.1 1019.2 0.0000 0.0000
10:39 13.6 9.8 78 270 0.3 1.1 1019.3 0.0000 0.0000
10:49 13.5 9.7 78 296 0.8 1.4 1019.2 0.0000 0.0000
11:00 13.5 9.7 78 270 0.3 1.4 1019.4 0.0000 0.0000
11:09 13.6 9.8 78 315 0.3 1.1 1019.5 0.0000 0.0000
11:19 13.6 9.8 78 270 0.3 1.4 1019.3 0.0000 0.0000
11:30 13.8 10 78 302 0.3 1.9 1019.4 0.0000 0.0000
11:40 13.9 10.1 78 303 0.8 1.9 1019.5 0.0000 0.0000
11:50 14 10 77 311 0.3 1.4 1019.4 0.0000 0.0000
11:59 14.2 10.2 77 303 0.8 1.9 1019.6 0.0000 0.0000
12:10 14.5 10.3 76 270 0.3 1.9 1019.6 0.0000 0.0000
12:20 14.6 10.2 75 288 0.8 1.9 1019.5 0.0000 0.0000
12:30 14.7 10.1 74 294 0.8 1.9 1019.5 0.0000 0.0000
12:40 14.8 10.2 74 270 0.3 1.4 1019.4 0.0000 0.0000
12:50 14.9 10.1 73 311 0.8 1.4 1019.4 0.0000 0.0000
13:00 15 10 72 302 0.3 1.4 1019.4 0.0000 0.0000
13:10 15.2 10.2 72 311 0.8 1.4 1019.2 0.0000 0.0000
13:21 15.3 10.1 71 296 0.8 2.2 1019.3 0.0000 0.0000
13:31 15.3 10.1 71 307 0.3 1.4 1019.2 0.0000 0.0000
13:40 15.4 10 70 306 0.8 1.1 1019.2 0.0000 0.0000
13:51 15.5 10.1 70 307 0.8 1.4 1019.2 0.0000 0.0000
14:01 15.5 10.1 70 298 0.8 1.4 1019.1 0.0000 0.0000
14:11 15.6 10.2 70 306 0.3 1.1 1019 0.0000 0.0000
14:21 15.8 10.3 70 270 0.3 1.1 1018.8 0.0000 0.0000
14:32 16 10.1 68 270 0.3 1.1 1018.9 0.0000 0.0000
14:41 16.3 9.9 66 270 0.3 1.9 1018.9 0.0000 0.0000
14:51 16.4 10.3 67 282 0.8 1.9 1019 0.0000 0.0000
15:01 16.3 9.9 66 299 0.8 1.9 1019.2 0.0000 0.0000
15:12 16.3 10.2 67 298 0.8 2.2 1019.1 0.0000 0.0000
15:22 16.3 10.4 68 270 0.3 1.4 1019.1 0.0000 0.0000
15:32 16.2 10.5 69 300 0.8 2.2 1018.9 0.0000 0.0000
15:42 16.1 10.4 69 270 0.3 1.1 1019 0.0000 0.0000
15:52 16.1 10.6 70 270 0.3 1.1 1018.8 0.0000 0.0000
16:02 16.1 10.6 70 306 0.8 2.5 1019 0.0000 0.0000
16:12 16 10.5 70 306 0.8 1.9 1018.9 0.0000 0.0000
16:23 16 10.3 69 303 1.1 3.1 1018.9 0.0000 0.0000
16:32 15.9 10.2 69 300 0.8 2.2 1019 0.0000 0.0000
16:42 15.8 10.3 70 308 0.8 1.4 1019.1 0.0000 0.0000
16:52 15.7 10 69 291 0.8 1.9 1018.7 0.0000 0.0000
17:03 15.7 10.3 70 303 0.3 1.4 1018.7 0.0000 0.0000
17:13 15.6 10.2 70 323 0.3 1.1 1018.8 0.0000 0.0000
17:23 15.6 10.2 70 300 0.8 1.9 1018.9 0.0000 0.0000

DAY STATISTIC

2018-10-18
TEMPERATURE
AVERAGE
13.9
HIGH
16.4
14:51
LOW
12.7
01:55
PRESSURE
AVERAGE
1018.1
HIGH
1019.6
11:59
LOW
1016.2
00:14
DEWPOINT
AVERAGE
9.9
HIGH
10.6
15:52
LOW
9.3
04:06
HUMIDITY
AVERAGE
77
HIGH
81
01:44
LOW
66
14:41
WIND SPEED
AVERAGE
0.4
HIGH
1.1
16:23
WIND GUST
AVERAGE
1.3
HIGH
3.1
16:23
WIND DIRECTION
PREVAILING
W
62.5%
N
0.0
NE
0.0
E
0.0
SE
0.0
S
0.0
SW
1.0
W
62.5
NW
36.5
PRECIPITATION
RAIN HOUR
0.0
RAIN DAY
0.0
TEMPERATURE (°C)
LOW
12.7
HIGH
16.4
AVERAGE
13.9
PRESSURE (hpa)
LOW
1016.2
HIGH
1019.6
AVERAGE
1018.1
DEVICE